Time;durP1;ratioP1;P1;durP2;ratioP2;P2;SDS_P1;SDS_P2;PMS_P1;PMS_P2;Temp;Humidity;BMP_temperature;BMP_pressure;BME280_temperature;BME280_humidity;BME280_pressure;Samples;Min_cycle;Max_cycle;Signal;HPM_P1;HPM_P2
2024/03/14 00:00:45;;;;;;;5.00;4.30;;;12.00;99.90;;;;;;5013621;28;20101;-83
2024/03/14 00:03:11;;;;;;;5.40;4.03;;;11.90;99.90;;;;;;5013482;28;20033;-83
2024/03/14 00:05:37;;;;;;;5.03;4.03;;;11.90;99.90;;;;;;4997326;28;20032;-83
2024/03/14 00:08:04;;;;;;;5.10;4.20;;;11.90;99.90;;;;;;5014173;28;20026;-83
2024/03/14 00:10:30;;;;;;;4.57;4.10;;;11.90;99.90;;;;;;5014280;28;20109;-83
2024/03/14 00:12:56;;;;;;;5.97;4.45;;;11.90;99.90;;;;;;5014365;28;20130;-82
2024/03/14 00:15:22;;;;;;;5.18;4.05;;;11.90;99.90;;;;;;5018306;28;20050;-83
2024/03/14 00:17:48;;;;;;;5.88;4.70;;;11.90;99.90;;;;;;5054169;28;20044;-83
2024/03/14 00:20:14;;;;;;;5.00;4.50;;;11.80;99.90;;;;;;5038544;28;20030;-83
2024/03/14 00:22:40;;;;;;;6.93;4.82;;;11.80;99.90;;;;;;5037878;28;20033;-82
2024/03/14 00:25:09;;;;;;;7.10;4.80;;;11.80;99.90;;;;;;5036069;28;20026;-82
2024/03/14 00:27:38;;;;;;;5.47;4.35;;;11.80;99.90;;;;;;5002790;28;20061;-82
2024/03/14 00:30:11;;;;;;;5.90;4.57;;;11.80;99.90;;;;;;5013139;28;20037;-82
2024/03/14 00:32:37;;;;;;;6.22;4.80;;;11.80;99.90;;;;;;5029370;28;20121;-83
2024/03/14 00:35:04;;;;;;;7.75;5.07;;;11.80;99.90;;;;;;5013009;28;20049;-82
2024/03/14 00:37:30;;;;;;;5.20;4.57;;;11.70;99.90;;;;;;5012705;28;20022;-83
2024/03/14 00:39:56;;;;;;;5.35;4.25;;;11.70;99.90;;;;;;5012554;28;20022;-83
2024/03/14 00:42:24;;;;;;;5.53;4.07;;;11.70;99.90;;;;;;5029071;28;20029;-83
2024/03/14 00:44:50;;;;;;;5.85;4.38;;;11.70;99.90;;;;;;5029063;28;20073;-83
2024/03/14 00:47:15;;;;;;;5.95;4.13;;;11.70;99.90;;;;;;5012845;28;20030;-83
2024/03/14 00:49:42;;;;;;;4.72;4.18;;;11.60;99.90;;;;;;4996211;28;20049;-84
2024/03/14 00:52:08;;;;;;;4.88;3.97;;;11.60;99.90;;;;;;5012652;28;20033;-83
2024/03/14 00:54:33;;;;;;;6.38;4.25;;;11.60;99.90;;;;;;5013888;28;20026;-83
2024/03/14 00:57:00;;;;;;;5.10;4.20;;;11.60;99.90;;;;;;5012482;28;20030;-83
2024/03/14 00:59:26;;;;;;;4.63;4.15;;;11.60;99.90;;;;;;5012521;28;20048;-82
2024/03/14 01:01:54;;;;;;;5.13;4.30;;;11.60;99.90;;;;;;5012350;28;20025;-83
2024/03/14 01:04:23;;;;;;;4.80;4.30;;;11.60;99.90;;;;;;5012804;28;20030;-82
2024/03/14 01:06:52;;;;;;;4.68;4.18;;;11.60;99.90;;;;;;5012694;28;20065;-82
2024/03/14 01:09:21;;;;;;;7.00;4.43;;;11.60;99.90;;;;;;5012926;28;20386;-82
2024/03/14 01:11:47;;;;;;;5.90;4.25;;;11.60;99.90;;;;;;5012147;28;20037;-82
2024/03/14 01:14:14;;;;;;;5.03;3.95;;;11.60;99.90;;;;;;5012605;28;20098;-82
2024/03/14 01:16:40;;;;;;;4.40;3.95;;;11.60;99.90;;;;;;4996039;28;20386;-81
2024/03/14 01:19:06;;;;;;;5.32;4.47;;;11.60;99.90;;;;;;4995752;28;20022;-81
2024/03/14 01:22:08;;;;;;;5.53;4.53;;;11.60;99.90;;;;;;4996340;28;20022;-82
2024/03/14 01:24:33;;;;;;;5.40;4.90;;;11.60;99.90;;;;;;5012122;28;20038;-83
2024/03/14 01:26:59;;;;;;;7.18;4.85;;;11.50;99.90;;;;;;4995478;28;20547;-82
2024/03/14 01:29:27;;;;;;;6.63;5.80;;;11.50;99.90;;;;;;4996139;28;20042;-81
2024/03/14 01:31:54;;;;;;;7.93;6.38;;;11.50;99.90;;;;;;5012737;28;20052;-82
2024/03/14 01:34:20;;;;;;;7.38;6.68;;;11.50;99.90;;;;;;5013833;28;20030;-83
2024/03/14 01:36:45;;;;;;;8.05;6.32;;;11.40;99.90;;;;;;5016317;28;20064;-82
2024/03/14 01:39:11;;;;;;;8.75;7.38;;;11.40;99.90;;;;;;5017052;28;20026;-81
2024/03/14 01:41:37;;;;;;;7.93;6.80;;;11.50;99.90;;;;;;5032903;28;20486;-82
2024/03/14 01:44:04;;;;;;;8.07;6.85;;;11.40;99.90;;;;;;5016522;28;20033;-83
2024/03/14 01:46:31;;;;;;;9.40;7.05;;;11.50;99.90;;;;;;5016829;28;20241;-83
2024/03/14 01:48:58;;;;;;;8.10;7.30;;;11.40;99.90;;;;;;5000904;28;20038;-83
2024/03/14 01:51:25;;;;;;;8.48;7.57;;;11.40;99.90;;;;;;5031389;28;20048;-83
2024/03/14 01:53:52;;;;;;;8.70;7.07;;;11.50;99.90;;;;;;5040322;28;20042;-83
2024/03/14 01:56:21;;;;;;;8.10;7.25;;;11.40;99.90;;;;;;5039192;28;20020;-81
2024/03/14 01:58:51;;;;;;;8.18;6.68;;;11.40;99.90;;;;;;5028170;28;20076;-81
2024/03/14 02:01:18;;;;;;;7.85;6.88;;;11.40;99.90;;;;;;5027438;28;20054;-83
2024/03/14 02:04:07;;;;;;;7.88;7.07;;;11.40;99.90;;;;;;5038347;28;20026;-83
2024/03/14 02:06:52;;;;;;;8.07;7.28;;;11.40;99.90;;;;;;5016967;28;20038;-81
2024/03/14 02:09:22;;;;;;;8.68;6.60;;;11.40;99.90;;;;;;5016935;28;20493;-83
2024/03/14 02:11:49;;;;;;;8.07;6.82;;;11.40;99.90;;;;;;4984321;28;20541;-83
2024/03/14 02:14:15;;;;;;;7.38;6.53;;;11.40;99.90;;;;;;5016163;28;20089;-82
2024/03/14 02:16:41;;;;;;;8.52;6.93;;;11.40;99.90;;;;;;4999500;28;20026;-82
2024/03/14 02:19:07;;;;;;;7.35;6.38;;;11.40;99.90;;;;;;5015291;28;20033;-83
2024/03/14 02:21:34;;;;;;;9.00;7.30;;;11.40;99.90;;;;;;4999393;28;20041;-82
2024/03/14 02:24:00;;;;;;;7.75;6.95;;;11.40;99.90;;;;;;5031994;28;20033;-83
2024/03/14 02:26:26;;;;;;;8.23;6.80;;;11.40;99.90;;;;;;5015284;28;20029;-83
2024/03/14 02:28:52;;;;;;;8.73;7.07;;;11.40;99.90;;;;;;5013870;28;20073;-82
2024/03/14 02:31:18;;;;;;;7.93;7.00;;;11.40;99.90;;;;;;5015881;28;20065;-82
2024/03/14 02:33:44;;;;;;;7.22;6.47;;;11.40;99.90;;;;;;4998935;28;20021;-83
2024/03/14 02:36:10;;;;;;;8.10;7.15;;;11.30;99.90;;;;;;5014905;28;20030;-82
2024/03/14 02:38:37;;;;;;;8.73;7.32;;;11.30;99.90;;;;;;5014911;28;20367;-82
2024/03/14 02:41:03;;;;;;;8.40;7.10;;;11.30;99.90;;;;;;5014880;28;20489;-82
2024/03/14 02:43:28;;;;;;;9.07;7.40;;;11.30;99.90;;;;;;5015010;28;20030;-84
2024/03/14 02:45:54;;;;;;;8.98;7.18;;;11.30;99.90;;;;;;5014557;28;20540;-84
2024/03/14 02:48:20;;;;;;;7.70;6.90;;;11.30;99.90;;;;;;5031213;28;20117;-82
2024/03/14 02:50:45;;;;;;;10.52;7.70;;;11.30;99.90;;;;;;4998279;28;20030;-83
2024/03/14 02:53:13;;;;;;;10.00;7.85;;;11.30;99.90;;;;;;5014738;28;20022;-83
2024/03/14 02:55:39;;;;;;;8.60;7.07;;;11.30;99.90;;;;;;5014928;28;20030;-83
2024/03/14 02:58:06;;;;;;;8.95;6.80;;;11.20;99.90;;;;;;5014385;28;20034;-83
2024/03/14 03:00:32;;;;;;;8.32;7.00;;;11.20;99.90;;;;;;5014679;28;20469;-83
2024/03/14 03:02:58;;;;;;;8.88;6.72;;;11.20;99.90;;;;;;5014352;28;20030;-82
2024/03/14 03:05:24;;;;;;;8.82;7.50;;;11.20;99.90;;;;;;5014629;28;20037;-82
2024/03/14 03:07:49;;;;;;;7.97;6.85;;;11.20;99.90;;;;;;5014460;28;20030;-83
2024/03/14 03:10:16;;;;;;;9.18;7.15;;;11.10;99.90;;;;;;5014852;28;20072;-82
2024/03/14 03:12:42;;;;;;;8.18;7.20;;;11.10;99.90;;;;;;5015571;28;20363;-83
2024/03/14 03:15:10;;;;;;;8.38;6.88;;;11.10;99.90;;;;;;4997923;28;20053;-83
2024/03/14 03:17:38;;;;;;;8.32;7.35;;;11.10;99.90;;;;;;5030933;28;20026;-82
2024/03/14 03:20:10;;;;;;;10.63;7.82;;;11.10;99.90;;;;;;4998777;28;20160;-82
2024/03/14 03:25:22;;;;;;;8.48;7.53;;;11.00;99.90;;;;;;5035289;28;20037;-82
2024/03/14 03:27:47;;;;;;;8.45;7.40;;;11.00;99.90;;;;;;5039237;28;20050;-82
2024/03/14 03:30:13;;;;;;;9.95;7.57;;;11.00;99.90;;;;;;5039223;28;20022;-84
2024/03/14 03:32:39;;;;;;;9.63;8.25;;;11.00;99.90;;;;;;5038533;28;20033;-83
2024/03/14 03:35:05;;;;;;;10.00;8.02;;;11.00;99.90;;;;;;5016561;28;20038;-83
2024/03/14 03:37:31;;;;;;;9.43;7.78;;;10.90;99.90;;;;;;5014311;28;20030;-83
2024/03/14 03:39:58;;;;;;;11.82;8.15;;;10.90;99.90;;;;;;5014117;28;20093;-83
2024/03/14 03:42:24;;;;;;;10.32;8.07;;;10.90;99.90;;;;;;5014012;28;20056;-82
2024/03/14 03:44:52;;;;;;;10.13;8.68;;;10.90;99.90;;;;;;4997655;28;20398;-82
2024/03/14 03:47:18;;;;;;;10.30;8.07;;;10.80;99.90;;;;;;5014967;28;20030;-82
2024/03/14 03:49:44;;;;;;;10.95;8.52;;;10.90;99.90;;;;;;5014705;28;20076;-82
2024/03/14 03:52:12;;;;;;;9.48;7.97;;;10.90;99.90;;;;;;5014596;28;20030;-82
2024/03/14 03:54:39;;;;;;;9.73;8.02;;;10.90;99.90;;;;;;5013779;28;20084;-82
2024/03/14 03:57:05;;;;;;;10.68;7.72;;;10.80;99.90;;;;;;5012912;28;20033;-81
2024/03/14 03:59:30;;;;;;;10.70;7.97;;;10.80;99.90;;;;;;5013901;28;20030;-83
2024/03/14 04:01:56;;;;;;;9.02;7.93;;;10.80;99.90;;;;;;5014612;28;20494;-82
2024/03/14 04:04:22;;;;;;;9.07;7.75;;;10.80;99.90;;;;;;5014431;28;20108;-82
2024/03/14 04:06:48;;;;;;;8.98;8.05;;;10.70;99.90;;;;;;5013412;28;20049;-82
2024/03/14 04:09:17;;;;;;;10.82;8.45;;;10.70;99.90;;;;;;4996921;28;20034;-83
2024/03/14 04:11:42;;;;;;;10.80;8.35;;;10.70;99.90;;;;;;4997622;28;20054;-82
2024/03/14 04:14:09;;;;;;;9.77;8.50;;;10.70;99.90;;;;;;4996944;28;20477;-83
2024/03/14 04:16:35;;;;;;;10.23;8.27;;;10.70;99.90;;;;;;5013621;28;20397;-83
2024/03/14 04:19:02;;;;;;;9.93;7.82;;;10.70;99.90;;;;;;5014671;28;20026;-83
2024/03/14 04:21:28;;;;;;;9.25;8.20;;;10.70;99.90;;;;;;4996791;28;20030;-82
2024/03/14 04:23:56;;;;;;;9.82;8.55;;;10.70;99.90;;;;;;5013016;28;20053;-82
2024/03/14 04:26:22;;;;;;;10.70;8.55;;;10.60;99.90;;;;;;5012851;28;20022;-82
2024/03/14 04:28:49;;;;;;;9.65;8.35;;;10.60;99.90;;;;;;4996570;28;20053;-82
2024/03/14 04:31:15;;;;;;;10.07;7.97;;;10.60;99.90;;;;;;5014067;28;20041;-81
2024/03/14 04:33:40;;;;;;;9.57;7.85;;;10.60;99.90;;;;;;5012993;28;20026;-82
2024/03/14 04:36:08;;;;;;;8.73;7.82;;;10.60;99.90;;;;;;5013483;28;20105;-83
2024/03/14 04:38:34;;;;;;;8.98;7.70;;;10.60;99.90;;;;;;5013635;28;20044;-82
2024/03/14 04:41:00;;;;;;;9.73;7.65;;;10.60;99.90;;;;;;5012819;28;20034;-83
2024/03/14 04:43:27;;;;;;;9.73;7.40;;;10.50;99.90;;;;;;4996696;28;20060;-82
2024/03/14 04:45:52;;;;;;;9.40;7.63;;;10.60;99.90;;;;;;5012943;28;20064;-83
2024/03/14 04:48:18;;;;;;;8.07;7.22;;;10.60;99.90;;;;;;5013175;28;20030;-83
2024/03/14 04:50:46;;;;;;;8.73;7.40;;;10.50;99.90;;;;;;5016580;28;20051;-83
2024/03/14 04:53:12;;;;;;;9.23;7.30;;;10.50;99.90;;;;;;5021391;28;20045;-81
2024/03/14 04:55:40;;;;;;;7.75;6.57;;;10.50;99.90;;;;;;5013855;28;20026;-83
2024/03/14 04:58:06;;;;;;;7.38;6.57;;;10.50;99.90;;;;;;5038092;28;20077;-82
2024/03/14 05:00:32;;;;;;;9.48;7.00;;;10.50;99.90;;;;;;5021222;28;20018;-83
2024/03/14 05:03:00;;;;;;;7.28;6.53;;;10.50;99.90;;;;;;5037222;28;20030;-83
2024/03/14 05:05:25;;;;;;;7.25;6.00;;;10.50;99.90;;;;;;5029988;28;20438;-83
2024/03/14 05:07:51;;;;;;;9.77;6.65;;;10.50;99.90;;;;;;4996862;28;20026;-82
2024/03/14 05:10:19;;;;;;;7.25;6.55;;;10.50;99.90;;;;;;5012109;28;20083;-83
2024/03/14 05:12:46;;;;;;;7.18;6.25;;;10.50;99.90;;;;;;5012326;28;20045;-82
2024/03/14 05:15:12;;;;;;;7.32;6.25;;;10.40;99.90;;;;;;5012620;28;20462;-83
2024/03/14 05:17:39;;;;;;;7.15;5.80;;;10.40;99.90;;;;;;4995949;28;20038;-82
2024/03/14 05:20:05;;;;;;;6.50;5.85;;;10.40;99.90;;;;;;5028639;28;20025;-82
2024/03/14 05:22:34;;;;;;;6.95;6.25;;;10.40;99.90;;;;;;5012293;28;20030;-82
2024/03/14 05:25:06;;;;;;;6.70;6.00;;;10.30;99.90;;;;;;5013005;28;20034;-84
2024/03/14 05:27:31;;;;;;;6.85;5.85;;;10.30;99.90;;;;;;5012895;28;20058;-82
2024/03/14 05:30:00;;;;;;;7.10;6.25;;;10.30;99.90;;;;;;5013490;28;20395;-83
2024/03/14 05:32:28;;;;;;;7.47;5.88;;;10.30;99.90;;;;;;5012503;28;20358;-82
2024/03/14 05:34:55;;;;;;;6.63;5.93;;;10.30;99.90;;;;;;4996300;28;20032;-82
2024/03/14 05:37:24;;;;;;;9.18;6.13;;;10.30;99.90;;;;;;5027894;28;20018;-81
2024/03/14 05:39:50;;;;;;;7.20;5.82;;;10.30;99.90;;;;;;5013205;28;20121;-80
2024/03/14 05:42:18;;;;;;;6.65;5.80;;;10.30;99.90;;;;;;5011868;28;20066;-81
2024/03/14 05:44:47;;;;;;;7.20;5.80;;;10.30;99.90;;;;;;5012647;28;20030;-83
2024/03/14 05:47:13;;;;;;;6.25;5.63;;;10.30;99.90;;;;;;5011765;28;20030;-82
2024/03/14 05:49:39;;;;;;;6.78;5.55;;;10.30;99.90;;;;;;5013353;28;20030;-82
2024/03/14 05:52:05;;;;;;;10.07;6.05;;;10.20;99.90;;;;;;5013062;28;20030;-82
2024/03/14 05:54:31;;;;;;;6.22;5.63;;;10.20;99.90;;;;;;5013142;28;20018;-81
2024/03/14 05:56:58;;;;;;;6.22;5.63;;;10.20;99.90;;;;;;5011960;28;20029;-81
2024/03/14 05:59:24;;;;;;;7.70;5.80;;;10.30;99.90;;;;;;5028274;28;20037;-81
2024/03/14 06:01:51;;;;;;;6.43;5.57;;;10.20;99.90;;;;;;5012489;28;20053;-81
2024/03/14 06:04:17;;;;;;;5.63;5.03;;;10.20;99.90;;;;;;4995487;28;20049;-82
2024/03/14 06:06:42;;;;;;;5.75;5.10;;;10.20;99.90;;;;;;4995428;28;20030;-82
2024/03/14 06:09:08;;;;;;;7.18;5.47;;;10.20;99.90;;;;;;5011903;28;20030;-84
2024/03/14 06:11:34;;;;;;;6.28;5.03;;;10.20;99.90;;;;;;5011702;28;20033;-83
2024/03/14 06:13:59;;;;;;;5.60;5.10;;;10.20;99.90;;;;;;4995731;28;20030;-81
2024/03/14 06:16:28;;;;;;;6.05;5.40;;;10.20;99.90;;;;;;5027671;28;20022;-81
2024/03/14 06:18:54;;;;;;;5.65;4.80;;;10.20;99.90;;;;;;5012450;28;20050;-81
2024/03/14 06:21:21;;;;;;;5.20;4.70;;;10.20;99.90;;;;;;5015288;28;20548;-82
2024/03/14 06:23:51;;;;;;;5.22;4.72;;;10.20;99.90;;;;;;5002052;28;20038;-81
2024/03/14 06:26:19;;;;;;;5.70;4.72;;;10.20;99.90;;;;;;5027555;28;20026;-81
2024/03/14 06:28:45;;;;;;;5.80;5.10;;;10.20;99.90;;;;;;5023805;28;20073;-81
2024/03/14 06:31:14;;;;;;;5.35;4.85;;;10.20;99.90;;;;;;5040140;28;20078;-82
2024/03/14 06:33:40;;;;;;;5.13;4.63;;;10.20;99.90;;;;;;5040364;28;20064;-81
2024/03/14 06:36:07;;;;;;;5.38;4.65;;;10.20;99.90;;;;;;5040212;28;20018;-81
2024/03/14 06:38:33;;;;;;;5.45;4.38;;;10.20;99.90;;;;;;5037451;28;20029;-81
2024/03/14 06:40:59;;;;;;;6.07;5.00;;;10.20;99.90;;;;;;5042063;28;20385;-81
2024/03/14 06:43:25;;;;;;;5.57;4.88;;;10.10;99.90;;;;;;5014712;28;20026;-81
2024/03/14 06:45:50;;;;;;;6.50;4.90;;;10.20;99.90;;;;;;5014640;28;20034;-81
2024/03/14 06:48:16;;;;;;;5.00;4.45;;;10.20;99.90;;;;;;5014919;28;20124;-81
2024/03/14 06:50:43;;;;;;;4.90;4.40;;;10.10;99.90;;;;;;4998510;28;20037;-81
2024/03/14 06:53:08;;;;;;;5.65;4.53;;;10.20;99.90;;;;;;4998573;28;20026;-81
2024/03/14 06:55:34;;;;;;;5.15;4.63;;;10.20;99.90;;;;;;5014643;28;20057;-81
2024/03/14 06:58:00;;;;;;;5.93;4.68;;;10.20;99.90;;;;;;4998319;28;20030;-81
2024/03/14 07:00:27;;;;;;;5.70;4.85;;;10.20;99.90;;;;;;5014599;28;20069;-82
2024/03/14 07:02:52;;;;;;;5.35;4.68;;;10.30;99.90;;;;;;5014668;28;20030;-81
2024/03/14 07:05:19;;;;;;;6.57;4.70;;;10.30;99.90;;;;;;5014527;28;20083;-80
2024/03/14 07:07:46;;;;;;;6.75;5.18;;;10.30;99.90;;;;;;5014721;28;20470;-81
2024/03/14 07:10:16;;;;;;;4.97;4.47;;;10.30;99.90;;;;;;5014640;28;20026;-81
2024/03/14 07:12:47;;;;;;;6.67;5.30;;;10.30;99.90;;;;;;5014447;28;20494;-82
2024/03/14 07:15:13;;;;;;;5.13;4.43;;;10.40;99.90;;;;;;5030866;28;20351;-81
2024/03/14 07:17:40;;;;;;;5.40;4.60;;;10.40;99.90;;;;;;5030974;28;20053;-81
2024/03/14 07:20:09;;;;;;;4.38;3.97;;;10.50;99.90;;;;;;5014361;28;20390;-81
2024/03/14 07:22:37;;;;;;;4.82;4.13;;;10.50;99.90;;;;;;5015157;28;20742;-81
2024/03/14 07:25:05;;;;;;;4.97;3.97;;;10.50;99.90;;;;;;5014347;28;20394;-80
2024/03/14 07:27:30;;;;;;;5.00;4.35;;;10.60;99.90;;;;;;5014054;28;20092;-81
2024/03/14 07:29:56;;;;;;;4.38;3.90;;;10.60;99.90;;;;;;4997945;28;20041;-81
2024/03/14 07:32:24;;;;;;;5.93;4.25;;;10.60;99.90;;;;;;5013126;28;20113;-81
2024/03/14 07:34:50;;;;;;;5.03;4.53;;;10.70;99.90;;;;;;5013908;28;20091;-81
2024/03/14 07:37:16;;;;;;;5.78;4.50;;;10.70;99.90;;;;;;4996522;28;20474;-80
2024/03/14 07:39:43;;;;;;;4.93;3.85;;;10.70;99.90;;;;;;5013470;28;20034;-81
2024/03/14 07:42:09;;;;;;;4.80;4.30;;;10.80;99.90;;;;;;5013850;28;20034;-81
2024/03/14 07:44:35;;;;;;;4.47;4.05;;;10.90;99.90;;;;;;5013499;28;20033;-81
2024/03/14 07:47:03;;;;;;;5.82;4.30;;;10.90;99.90;;;;;;5013889;28;20029;-81
2024/03/14 07:49:30;;;;;;;5.03;3.88;;;10.90;99.90;;;;;;5014269;28;20414;-81
2024/03/14 07:51:57;;;;;;;6.63;4.30;;;10.90;99.90;;;;;;5014798;28;20172;-81
2024/03/14 07:54:23;;;;;;;4.55;4.00;;;11.00;99.90;;;;;;5014207;28;20394;-81
2024/03/14 07:56:51;;;;;;;6.15;4.25;;;11.10;99.90;;;;;;5014523;28;20026;-81
2024/03/14 07:59:17;;;;;;;4.47;4.05;;;11.10;99.90;;;;;;5027688;28;20038;-83
2024/03/14 08:01:45;;;;;;;4.32;3.90;;;11.20;99.90;;;;;;5055104;28;20013;-82
2024/03/14 08:04:13;;;;;;;4.68;4.00;;;11.20;99.90;;;;;;5038668;28;20057;-81
2024/03/14 08:06:39;;;;;;;5.10;4.25;;;11.30;99.90;;;;;;5054657;28;20029;-81
2024/03/14 08:09:05;;;;;;;4.75;4.13;;;11.40;99.90;;;;;;5024887;28;20165;-80
2024/03/14 08:11:31;;;;;;;4.75;4.18;;;11.50;99.90;;;;;;5013352;28;20045;-82
2024/03/14 08:14:02;;;;;;;4.55;3.90;;;11.50;99.90;;;;;;4997156;28;20026;-81
2024/03/14 08:16:31;;;;;;;4.72;4.05;;;11.50;99.90;;;;;;5013502;28;20057;-81
2024/03/14 08:18:57;;;;;;;5.95;4.45;;;11.60;99.90;;;;;;5014387;28;20033;-81
2024/03/14 08:21:22;;;;;;;7.63;4.53;;;11.60;99.90;;;;;;5013277;28;20505;-81
2024/03/14 08:23:48;;;;;;;8.93;4.60;;;11.70;99.90;;;;;;4996838;28;20390;-81
2024/03/14 08:26:16;;;;;;;7.55;4.60;;;11.80;99.90;;;;;;5013513;28;20037;-81
2024/03/14 08:28:43;;;;;;;5.90;3.88;;;11.80;99.90;;;;;;5013852;28;20049;-81
2024/03/14 08:31:15;;;;;;;7.10;4.50;;;11.80;99.90;;;;;;5012829;28;20061;-80
2024/03/14 08:33:45;;;;;;;6.85;4.32;;;11.80;99.90;;;;;;5029448;28;20033;-81
2024/03/14 08:36:11;;;;;;;4.72;4.20;;;11.80;99.90;;;;;;5013156;28;20029;-82
2024/03/14 08:38:38;;;;;;;4.70;3.80;;;11.90;99.90;;;;;;5012894;28;20025;-82
2024/03/14 08:41:04;;;;;;;5.97;4.10;;;11.90;99.90;;;;;;5012706;28;20029;-82
2024/03/14 08:43:30;;;;;;;5.00;4.35;;;12.00;99.90;;;;;;5012671;28;20026;-82
2024/03/14 08:45:56;;;;;;;5.32;4.03;;;12.10;99.90;;;;;;4996529;28;20034;-82
2024/03/14 08:48:22;;;;;;;4.40;3.72;;;12.10;99.90;;;;;;5013068;28;20029;-81
2024/03/14 08:50:48;;;;;;;6.45;4.38;;;12.20;99.90;;;;;;5013502;28;20057;-82
2024/03/14 08:53:15;;;;;;;11.27;5.05;;;12.20;99.90;;;;;;4996499;28;20029;-81
2024/03/14 08:55:50;;;;;;;6.47;3.90;;;12.30;99.90;;;;;;5012597;28;20037;-81
2024/03/14 08:58:18;;;;;;;29.23;7.53;;;12.40;99.90;;;;;;5013966;28;20097;-82
2024/03/14 09:00:43;;;;;;;17.88;5.88;;;12.40;99.90;;;;;;5012769;28;20026;-82
2024/03/14 09:03:09;;;;;;;7.88;4.55;;;12.50;99.90;;;;;;5012623;28;20029;-81
2024/03/14 09:05:36;;;;;;;6.10;4.18;;;12.60;99.90;;;;;;4996178;28;20030;-83
2024/03/14 09:08:03;;;;;;;6.32;4.07;;;12.70;99.90;;;;;;5012755;28;20030;-82
2024/03/14 09:10:33;;;;;;;4.97;3.85;;;12.70;99.90;;;;;;5012544;28;20030;-82
2024/03/14 09:12:59;;;;;;;5.15;4.00;;;12.80;99.90;;;;;;5012635;28;20045;-82
2024/03/14 09:15:25;;;;;;;13.77;4.63;;;12.90;99.90;;;;;;5012715;28;20022;-82
2024/03/14 09:17:51;;;;;;;6.75;4.35;;;12.90;99.90;;;;;;5012632;28;20385;-82
2024/03/14 09:20:19;;;;;;;6.55;3.70;;;13.00;99.90;;;;;;5028967;28;20164;-82
2024/03/14 09:22:53;;;;;;;5.07;3.65;;;13.10;99.90;;;;;;5029051;28;20501;-82
2024/03/14 09:25:23;;;;;;;4.78;4.13;;;13.10;99.90;;;;;;5028932;28;20474;-81
2024/03/14 09:27:49;;;;;;;5.20;3.47;;;13.20;99.90;;;;;;5028781;28;20050;-82
2024/03/14 09:30:15;;;;;;;4.07;3.40;;;13.30;99.90;;;;;;5013277;28;20037;-81
2024/03/14 09:32:41;;;;;;;3.53;3.05;;;13.30;99.90;;;;;;5031747;28;20109;-84
2024/03/14 09:35:12;;;;;;;3.85;3.33;;;13.40;99.90;;;;;;5052598;28;20202;-81
2024/03/14 09:37:43;;;;;;;3.55;3.13;;;13.40;99.90;;;;;;5038035;28;20026;-82
2024/03/14 09:40:13;;;;;;;3.13;2.72;;;13.40;99.90;;;;;;5053621;28;20014;-81
2024/03/14 09:42:48;;;;;;;3.03;2.70;;;13.50;99.90;;;;;;5035846;28;20027;-82
2024/03/14 09:45:14;;;;;;;2.92;2.65;;;13.60;99.90;;;;;;4999493;28;20034;-82
2024/03/14 09:47:41;;;;;;;3.22;2.90;;;13.60;99.90;;;;;;5012433;28;20021;-84
2024/03/14 09:50:15;;;;;;;3.95;3.15;;;13.60;99.90;;;;;;5012128;28;20030;-81
2024/03/14 09:52:43;;;;;;;4.50;3.08;;;13.70;99.90;;;;;;5029482;28;20385;-82
2024/03/14 09:55:12;;;;;;;3.10;2.80;;;13.80;99.90;;;;;;5014120;28;20033;-82
2024/03/14 09:57:38;;;;;;;3.28;2.60;;;13.80;99.90;;;;;;5015898;28;20030;-82
2024/03/14 10:00:15;;;;;;;3.10;2.75;;;13.80;99.90;;;;;;5015616;28;20026;-81
2024/03/14 10:02:41;;;;;;;13.55;4.30;;;13.90;99.90;;;;;;5017008;28;20022;-81
2024/03/14 10:05:14;;;;;;;5.60;2.78;;;13.90;99.90;;;;;;5015899;28;20037;-81
2024/03/14 10:07:39;;;;;;;4.75;2.78;;;13.90;99.90;;;;;;5015682;28;20030;-81
2024/03/14 10:10:06;;;;;;;3.38;2.78;;;13.90;99.90;;;;;;5015422;28;20034;-82
2024/03/14 10:12:32;;;;;;;36.45;7.43;;;14.00;99.90;;;;;;5032106;28;20052;-81
2024/03/14 10:15:46;;;;;;;9.07;4.10;;;13.90;99.90;;;;;;5015385;28;20049;-81
2024/03/14 10:17:45;;;;;;;6.13;3.03;;;13.90;99.90;;;;;;5011722;28;20474;-82
2024/03/14 10:20:12;;;;;;;49.90;9.80;;;13.90;99.90;;;;;;5015570;28;20025;-82
2024/03/14 10:22:38;;;;;;;16.80;5.28;;;13.90;99.90;;;;;;5016426;28;20088;-82
2024/03/14 10:25:05;;;;;;;13.93;4.40;;;13.90;99.90;;;;;;5016905;28;20030;-81
2024/03/14 10:27:32;;;;;;;19.92;5.85;;;14.00;99.90;;;;;;5015672;28;20061;-81
2024/03/14 10:30:00;;;;;;;8.88;3.50;;;14.00;99.90;;;;;;5015400;28;20022;-82
2024/03/14 10:32:26;;;;;;;5.72;3.53;;;14.10;99.90;;;;;;5015250;28;20049;-82
2024/03/14 10:34:51;;;;;;;4.53;3.22;;;14.10;99.90;;;;;;5015047;28;20022;-81
2024/03/14 10:37:23;;;;;;;3.72;3.13;;;14.20;99.90;;;;;;5015096;28;20036;-80
2024/03/14 10:39:54;;;;;;;3.28;2.90;;;14.20;99.90;;;;;;5031321;28;20017;-83
2024/03/14 10:42:22;;;;;;;2.60;2.38;;;14.30;99.90;;;;;;5031436;28;20026;-81
2024/03/14 10:44:48;;;;;;;3.60;3.10;;;14.30;99.90;;;;;;5016015;28;20030;-82
2024/03/14 10:47:15;;;;;;;3.13;2.83;;;14.40;99.90;;;;;;5014879;28;20516;-81
2024/03/14 10:49:45;;;;;;;6.22;3.55;;;14.40;99.90;;;;;;5015998;28;20053;-81
2024/03/14 10:52:14;;;;;;;3.40;3.00;;;14.50;99.90;;;;;;5016020;28;20081;-81
2024/03/14 10:54:44;;;;;;;3.33;2.80;;;14.60;99.90;;;;;;5015030;28;20065;-81
2024/03/14 10:57:11;;;;;;;3.92;2.22;;;14.60;99.90;;;;;;5015984;28;20022;-81
2024/03/14 10:59:40;;;;;;;3.53;2.50;;;14.60;99.90;;;;;;5016317;28;20433;-81
2024/03/14 11:02:14;;;;;;;3.33;2.22;;;14.70;99.90;;;;;;5016413;28;20084;-81
2024/03/14 11:04:44;;;;;;;2.78;2.50;;;14.70;99.90;;;;;;5014990;28;20053;-81
2024/03/14 11:07:12;;;;;;;2.75;2.40;;;14.80;99.90;;;;;;5014897;28;20065;-82
2024/03/14 11:09:58;;;;;;;2.55;2.35;;;14.80;99.90;;;;;;5015557;28;20033;-82
2024/03/14 11:12:27;;;;;;;2.40;2.03;;;14.80;99.90;;;;;;5029660;28;20056;-82
2024/03/14 11:14:59;;;;;;;3.78;2.30;;;14.90;99.90;;;;;;5056101;28;20029;-81
2024/03/14 11:17:28;;;;;;;4.20;2.65;;;15.00;99.90;;;;;;5055990;28;20021;-81
2024/03/14 11:20:03;;;;;;;2.45;2.25;;;15.00;99.90;;;;;;5039407;28;20072;-83
2024/03/14 11:22:30;;;;;;;2.00;1.90;;;15.10;99.90;;;;;;5031048;28;20022;-81
2024/03/14 11:24:57;;;;;;;3.78;2.88;;;15.10;99.90;;;;;;5014874;28;20266;-81
2024/03/14 11:27:24;;;;;;;5.03;2.28;;;15.20;99.90;;;;;;4998258;28;20390;-81
2024/03/14 11:29:52;;;;;;;5.80;2.33;;;15.20;99.90;;;;;;4997920;28;20386;-81
2024/03/14 11:32:29;;;;;;;3.50;2.30;;;15.20;99.90;;;;;;5014171;28;20121;-82
2024/03/14 11:34:55;;;;;;;4.72;1.85;;;15.20;99.90;;;;;;5015205;28;20021;-82
2024/03/14 11:37:20;;;;;;;4.97;1.90;;;15.30;99.90;;;;;;5014108;28;20506;-82
2024/03/14 11:39:50;;;;;;;24.70;4.97;;;15.40;99.90;;;;;;5013813;28;20029;-82
2024/03/14 11:42:16;;;;;;;8.38;3.00;;;15.40;99.90;;;;;;5013878;28;20034;-82
2024/03/14 11:44:51;;;;;;;6.68;2.47;;;15.50;99.90;;;;;;5030563;28;20474;-81
2024/03/14 11:47:43;;;;;;;3.35;2.25;;;15.50;99.90;;;;;;5013624;28;20042;-81
2024/03/14 11:50:09;;;;;;;3.83;2.03;;;15.60;99.90;;;;;;5028003;28;20125;-81
2024/03/14 11:52:40;;;;;;;1.98;1.75;;;15.60;99.90;;;;;;5013514;28;20034;-81
2024/03/14 11:55:09;;;;;;;2.42;1.90;;;15.70;99.90;;;;;;5014264;28;20109;-82
2024/03/14 11:57:35;;;;;;;2.50;2.10;;;15.80;99.90;;;;;;5013360;28;20482;-82
2024/03/14 12:00:08;;;;;;;1.85;1.70;;;15.80;99.90;;;;;;4997093;28;20030;-82
2024/03/14 12:02:34;;;;;;;2.17;1.67;;;15.90;99.90;;;;;;5013730;28;20482;-82
2024/03/14 12:05:05;;;;;;;1.90;1.40;;;15.90;99.90;;;;;;5014643;28;20038;-82
2024/03/14 12:07:34;;;;;;;1.85;1.70;;;16.00;99.90;;;;;;5030050;28;20056;-82
2024/03/14 12:10:03;;;;;;;4.00;2.20;;;16.00;99.90;;;;;;5013126;28;20057;-82
2024/03/14 12:12:32;;;;;;;3.47;2.17;;;16.10;99.90;;;;;;5013412;28;20037;-82
2024/03/14 12:14:58;;;;;;;2.50;1.88;;;16.00;99.90;;;;;;5013198;28;20037;-83
2024/03/14 12:17:24;;;;;;;2.00;1.70;;;16.10;99.90;;;;;;5014189;28;20105;-82
2024/03/14 12:19:53;;;;;;;2.97;1.42;;;16.10;99.90;;;;;;5013130;28;20458;-82
2024/03/14 12:22:21;;;;;;;3.25;1.67;;;16.10;99.90;;;;;;5014301;28;20507;-82
2024/03/14 12:25:00;;;;;;;2.10;1.85;;;16.20;99.90;;;;;;4997622;28;20026;-82
2024/03/14 12:27:27;;;;;;;4.25;2.00;;;16.20;99.90;;;;;;5029155;28;20525;-81
2024/03/14 12:29:53;;;;;;;3.60;1.95;;;16.20;99.90;;;;;;5013708;28;20080;-81
2024/03/14 12:32:19;;;;;;;1.60;1.38;;;16.20;99.90;;;;;;5012134;28;20034;-82
2024/03/14 12:34:46;;;;;;;2.53;1.60;;;16.30;99.90;;;;;;5012267;28;20378;-81
2024/03/14 12:37:14;;;;;;;2.83;1.70;;;16.40;99.90;;;;;;5012365;28;20030;-82
2024/03/14 12:39:50;;;;;;;2.45;1.52;;;16.40;99.90;;;;;;5012311;28;20022;-81
2024/03/14 12:42:16;;;;;;;3.45;1.58;;;16.50;99.90;;;;;;5012101;28;20026;-81
2024/03/14 12:44:43;;;;;;;2.53;1.75;;;16.50;99.90;;;;;;5013402;28;20581;-82
2024/03/14 12:47:09;;;;;;;3.30;1.63;;;16.50;99.90;;;;;;4996498;28;20057;-83
2024/03/14 12:49:35;;;;;;;1.60;1.50;;;16.50;99.90;;;;;;4996588;28;20038;-81